Racecast

Lucy Park Invitational

Lucy Park · 3200m · Girls · Compiled · TX

222 runners from 2 divisions

These divisions were run separately. This is how their times compare, not how they finished — the places and scores below were never contested.

View full meet →

Team scores

Place Team Points 12345 67
1 Holliday (TX) 26 1 4 6 7 8 9 10
2 Nocona (TX) 116 16 17 19 29 35 39 55
3 Iowa Park (TX) 127 3 14 30 37 43 48 68
4 Seymour (TX) 137 11 18 20 41 47 62 84
5 Graham (TX) 149 23 24 25 28 49 50 73
6 Munday (TX) 171 2 5 52 53 59 66 69
7 Vernon (TX) 198 21 33 34 38 72 88 93
8 Burkburnett (TX) 222 13 15 51 56 87 96 103
9 Wichita Falls Rider (TX) 246 36 40 42 63 65 75 112
10 Henrietta (TX) 254 27 32 54 67 74 77 81
11 Olney (TX) 255 22 31 46 76 80 91 97
12 Quanah (TX) 285 12 44 57 83 89 92 94
13 McNiel (TX) 363 58 60 78 82 85 101 110
14 Zundelowitz (TX) 386 26 61 86 105 108 114 115
15 Bellevue (TX) 413 70 71 79 95 98 104 113
16 Wichita Falls City View (TX) 427 45 64 100 102 116
17 Wichita Falls (closed 2024) (TX) 511 90 99 106 107 109 111

Not scored, fewer than five finishers: Crowell (4), Petrolia (4), Barwise (4), Wichita Falls Hirschi (3), City View (3), Bryson (1), Seymour (1), Electra (1), Chillicothe (1), Chillicothe (1), Christ Academy (1)

Results

Place Athlete Grade School Time Rating Points Actual race
1 Cryslan Tucker 8 Holliday (TX) 1 11:43.8 132.5 1 1
2 Janie Salinas 11 Munday (TX) 1 12:33.8 123.7 2 2
3 Azlyn Vassar 11 Iowa Park (TX) 1 12:36.5 123.3 3 3
4 Chloe Zeisman 9 Holliday (TX) 2 12:39.0 122.9 4 4
5 Tiffany Serrato 12 Munday (TX) 2 12:42.1 122.4 5 5
6 Riley Smith 10 Bryson (TX) 1 12:43.0 122.2 6
7 Michaela Yandell 9 Holliday (TX) 3 12:49.0 121.3 6 7
8 Audrey Hardin 9 Holliday (TX) 4 12:51.7 120.9 7 8
9 Haley Sedillo 9 Holliday (TX) 5 12:53.5 120.6 8 9
10 Morgan Yandell 10 Holliday (TX) 6 12:54.8 120.4 9 10
11 Kacy Stevens 12 Holliday (TX) 7 13:05.8 118.7 10 11
12 Maggie Slaggle 11 Seymour (IN) 1 13:08.1 118.3 11 12
13 Micah Silvey 10 Quanah (TX) 1 13:17.0 117.0 12 13
14 Olivia Johnson 8 Burkburnett (TX) 1 13:18.4 95.3 13 1
15 Brittany Lindemann 11 Holliday (TX) 8 13:25.2 115.8 14
16 Brianna Bates 9 Iowa Park (TX) 2 13:31.2 115.0 14 15
17 Summer Breez Ancira 8 Burkburnett (TX) 2 13:33.1 93.6 15 2
18 Victoria Fatheree 11 Nocona (TX) 1 13:33.5 114.7 16 16
19 Daisy Ibarra 10 Nocona (TX) 2 13:35.1 114.4 17 17
20 Jessica Simek 10 Seymour (IN) 2 13:44.6 113.1 18 18
21 Yesenia Duarte 9 Nocona (TX) 3 13:48.1 112.6 19 19
22 Bree'na Kolacek 10 Seymour (IN) 3 13:48.5 112.6 20 20
23 Emily Conner 10 Vernon (TX) 1 13:48.8 112.5 21 21
24 Anahie Marquez 7 Olney (TX) 1 13:50.0 100.9 22 3
25 Maricela Camargo 12 Graham (TX) 1 13:56.5 111.5 23 22
26 Claudia Padron 10 Graham (TX) 2 13:59.5 111.1 24 23
27 Angelica Camacho 12 Graham (TX) 3 14:04.7 110.4 25 24
28 Keeley Ayala 8 Zundelowitz (TX) 1 14:10.6 98.4 26 4
29 Addison Hoff 7 Henrietta (TX) 1 14:11.5 98.3 27 5
30 Angelica Rendon 11 Graham (TX) 4 14:14.7 109.1 28 25
31 Emma Meekins 8 Nocona (TX) 4 14:16.6 97.7 29 6
32 Alex Fulton 11 Holliday (TX) 9 14:18.3 108.7 26
33 Erica Hariss 12 Iowa Park (TX) 3 14:18.4 108.7 30 27
34 Marbella Santivanez 9 Olney (TX) 2 14:23.3 108.0 31 28
35 Chloe Zamzow 7 Henrietta (TX) 2 14:24.7 96.8 32 7
36 Kelsey Graf 12 Vernon (TX) 2 14:26.2 107.7 33 29
37 Brittany Hodges 9 Vernon (TX) 3 14:26.8 107.6 34 30
38 Flor Gomez 10 Nocona (TX) 5 14:27.3 107.5 35 31
39 Mai-Ly Ngo 11 Crowell (TX) 1 14:28.8 107.3 32
40 Caitlin Pawloski 10 Wichita Falls Rider (TX) 1 14:30.5 107.1 36 33
41 Katherine Taggart 10 Iowa Park (TX) 4 14:30.6 107.1 37 34
42 Rachel Perez 9 Vernon (TX) 4 14:31.9 107.0 38 35
43 Crystal Duarte 8 Nocona (TX) 6 14:33.7 95.8 39 8
44 Annabel Espinosa 12 Wichita Falls Rider (TX) 2 14:34.2 106.7 40 36
45 Laurie Beck 8 Seymour (IN) 4 14:40.5 95.1 41 9
46 Michelle Ingle 12 Wichita Falls Rider (TX) 3 14:40.7 105.9 42 37
47 Sierra Peirce 10 Iowa Park (TX) 5 14:42.8 105.7 43 38
48 Bethany Osbourne 8 Quanah (TX) 2 14:43.3 94.8 44 10
49 Latasha Lewis 12 Wichita Falls Hirschi (TX) 1 14:43.8 105.5 39
50 Angela Bremseth 11 Holliday (TX) 10 14:45.9 105.3 40
51 Justice Carwile 9 Wichita Falls City View (TX) 1 14:47.8 105.1 45 41
52 Kodee Scott 9 Olney (TX) 3 14:49.2 104.9 46 42
53 Isabel Miller 9 Seymour (IN) 5 14:49.6 104.8 47 43
54 Megan Ashlock 11 Iowa Park (TX) 6 14:53.3 104.4 48 44
55 Cristal Sanchez 10 Graham (TX) 5 14:56.9 104.0 49 45
56 Skylar Forbus 9 Graham (TX) 6 15:00.1 103.6 50 46
57 Carlie Clark 7 Burkburnett (TX) 3 15:01.3 92.9 51 11
58 Kaylan Urbanczyk 12 Munday (TX) 3 15:05.0 103.1 52 47
59 Rhealea Hendrix 10 Munday (TX) 4 15:06.0 102.9 53 48
60 Grace Cook 7 Holliday (TX) 11 15:07.1 92.3 12
61 Casey Gill 10 Henrietta (TX) 3 15:07.4 102.8 54 49
62 Miriam Diaz 11 Nocona (TX) 7 15:09.4 102.6 55 50
63 Makayla Wolf 8 Burkburnett (TX) 4 15:10.7 91.9 56 13
64 Haylie Hinojosa 9 Quanah (TX) 3 15:12.9 102.2 57 51
65 Amber Loyd 12 Holliday (TX) 12 15:12.9 102.2 52
66 Lauren Escobedo 8 McNiel (TX) 1 15:15.2 91.5 58 14
67 Taylor Thompson 10 Munday (TX) 5 15:15.6 101.9 59 53
68 Jalyn Blevins 12 Nocona (TX) 8 15:15.9 101.8 54
69 Jasmyn Montgomery 7 McNiel (TX) 2 15:16.0 91.4 60 15
70 Madilyn Pinson 8 Zundelowitz (TX) 2 15:16.1 91.4 61 16
71 Aalexadria Holifield 11 Wichita Falls Hirschi (TX) 2 15:16.4 101.8 55
72 Addi Nichols 8 Holliday (TX) 13 15:18.9 91.1 17
73 Kaylie Rivers 7 Holliday (TX) 14 15:21.2 90.9 18
74 Taylor Turner 10 Holliday (TX) 15 15:22.8 101.1 56
75 Hayley Arnold 9 Seymour (IN) 6 15:22.8 101.1 62 57
76 Sarah Templemeyer 10 Wichita Falls Rider (TX) 4 15:27.5 100.6 63 58
77 Nicole Ramirez 11 Wichita Falls City View (TX) 2 15:30.3 100.2 64 59
78 Megan Jackson 11 Wichita Falls Rider (TX) 5 15:35.4 99.7 65 60
79 Kathryn Cude 10 Munday (TX) 6 15:37.1 99.5 66 61
80 Degan Bailey 9 Crowell (TX) 2 15:39.2 99.3 62
81 Kylee Halter 7 Henrietta (TX) 4 15:39.7 89.1 67 19
82 Rikki Kelly 12 Iowa Park (TX) 7 15:40.0 99.2 68 63
83 Jenna Wertz 12 Munday (TX) 7 15:41.0 99.1 69 64
84 Devon Cassetty 10 Bellevue (WA) 1 15:41.3 99.1 70 65
85 Lexi James 7 Holliday (TX) 16 15:42.9 88.8 20
86 Madi Eckeberger 9 Bellevue (WA) 2 15:42.9 98.9 71 66
87 Peyton Gribble 9 Vernon (TX) 5 15:49.0 98.3 72 67
88 Samantha Price 12 Graham (TX) 7 15:50.3 98.1 73 68
89 Mahalah Womack 11 Henrietta (TX) 5 15:53.0 97.9 74 69
90 Lexi Brown 9 Wichita Falls Rider (TX) 6 15:55.0 97.7 75 70
91 Marisol Marquez 9 Olney (TX) 4 15:56.1 97.6 76 71
92 Tucker Sidney 7 Seymour (IN) 1 15:57.4 87.4 21
93 Alexia Rushin 9 Graham (TX) 8 15:57.5 97.4 72
94 Krystal Cook 10 Henrietta (TX) 6 15:57.9 77 73
95 Bethany Ward 8 McNiel (TX) 3 16:01.4 87.1 78 22
96 Victoria Woods 11 Bellevue (WA) 3 16:07.4 96.4 79 74
97 Baylee Young - Electra (TX) 1 16:07.5 86.5 23
98 Taylor Rivera 8 Nocona (TX) 9 16:10.6 86.3 24
99 Hannah Hilton 9 Olney (TX) 5 16:11.2 96.0 80 75
100 Morgan Shores-Baker 11 Crowell (TX) 3 16:18.9 95.3 76
101 Morgan Smiley 9 Henrietta (TX) 7 16:20.9 95.1 81 77
102 Abby Pennartz 9 Petrolia (TX) 1 16:20.9 95.1 78
103 Angela Fiorentino 8 McNiel (TX) 4 16:21.0 85.3 82 25
104 Daphanie Colbert 11 Quanah (TX) 4 16:22.0 95.0 83 79
105 Remie Haynes 8 Seymour (IN) 7 16:27.0 84.8 84 26
106 Analyzia Szymanski 7 McNiel (TX) 5 16:29.1 84.7 85 27
107 Natalie Esley - Wichita Falls Hirschi (TX) 3 16:29.4 94.3 80
108 Brittany Gonzales 7 Zundelowitz (TX) 3 16:29.7 84.6 86 28
109 Angela Ortiz 12 Burkburnett (TX) 5 16:30.5 94.2 87 81
110 Chelsea Echols 12 Vernon (TX) 6 16:32.4 94.0 88 82
111 Madison Soles 10 Quanah (TX) 5 16:32.7 93.9 89 83
112 Kelsey Tahmahkera 12 Wichita Falls (closed 2024) (TX) 1 16:32.9 93.9 90 84
113 Jessica Vogel 8 Nocona (TX) 10 16:34.9 84.2 29
114 Alli Fleming 7 Olney (TX) 6 16:37.9 83.9 91 30
115 Teelee Cook 8 Henrietta (TX) 8 16:39.5 83.8 31
116 Shelby Day 10 Quanah (TX) 6 16:41.3 93.2 92 85
117 Selena Salazar 10 Vernon (TX) 7 16:41.5 93.1 93 86
118 Gisel Hernandez 7 Nocona (TX) 11 16:42.9 83.5 32
119 Natalia Araiza 8 Vernon (TX) 8 16:45.3 83.3 33
120 Morgan Bodde 3 Holliday (TX) 17 16:45.6 83.3 34
121 Kendra Silvey 9 Quanah (TX) 7 16:53.2 92.1 94 87
122 Lupita Hernandez 12 Quanah (TX) 8 16:53.4 92.0 88
123 Morgan Bertelson 11 Holliday (TX) 18 16:56.4 91.8 89
124 Zoie Berry 7 Bellevue (WA) 4 16:56.4 82.4 95 35
125 Jackie McGrath 12 Holliday (TX) 19 16:57.3 91.7 90
126 Brooke Eddins 8 Burkburnett (TX) 6 16:58.4 82.2 96 36
127 Kiara Owen 7 Olney (TX) 7 17:01.3 82.0 97 37
128 Freedom Morris 7 Bellevue (WA) 5 17:03.2 81.8 98 38
129 Marissa Gomez 11 Olney (TX) 8 17:04.1 91.1 91
130 Farai Mubvumba 8 Vernon (TX) 9 17:14.0 81.0 39
131 Sierra Poore 12 Wichita Falls (closed 2024) (TX) 2 17:16.1 90.0 99 92
132 Andrea Wilson 9 Wichita Falls City View (TX) 3 17:17.1 89.9 100 93
133 Sarah Maclagan 8 McNiel (TX) 6 17:17.4 80.7 101 40
134 Kino Matayoshi 11 Wichita Falls City View (TX) 4 17:17.5 89.9 102 94
135 Alexis Matthews 9 Henrietta (TX) 9 17:17.9 89.9 95
136 Gabrielle Mathews 8 Henrietta (TX) 10 17:19.9 80.5 41
137 Anna Vogt 7 Burkburnett (TX) 7 17:20.4 80.5 103 42
138 Ally Corwin 9 Bellevue (WA) 6 17:26.7 89.1 104 96
139 Abby Richter 7 Burkburnett (TX) 8 17:30.2 79.7 43
140 Jessica Scarborough 7 Zundelowitz (TX) 4 17:34.0 79.4 105 44
141 Lourdes Gutierrez 7 Burkburnett (TX) 9 17:34.0 79.4 45
142 Antranese Hicks 12 Wichita Falls (closed 2024) (TX) 3 17:36.7 88.3 106 97
143 Heavyne Wells 9 Chillicothe (OH) 1 17:38.1 88.2 98
144 Bailey Bradshaw 9 Petrolia (TX) 2 17:38.5 88.1 99
145 Savannah Carter 9 Wichita Falls (closed 2024) (TX) 4 17:38.9 88.1 107 100
146 Kaylin Walters 1 Barwise (TX) 1 17:39.2 85.8 46
147 Kiersten Sutton 8 Nocona (TX) 12 17:39.3 79.0 47
148 Madelynn Phillips 8 Zundelowitz (TX) 5 17:39.5 79.0 108 48
149 Madeline Underwood 7 Burkburnett (TX) 10 17:41.2 78.9 49
150 Alexia Woods 10 Quanah (TX) 9 17:42.9 87.8 101
151 Dominique Williams 11 Wichita Falls (closed 2024) (TX) 5 17:43.9 87.7 109 102
152 Casie Curry 8 McNiel (TX) 7 17:46.4 78.5 110 50
153 Kaci Williams 7 Henrietta (TX) 11 17:46.4 78.5 51
154 Liliana Gutierrez 12 Wichita Falls (closed 2024) (TX) 6 17:52.0 87.0 111 103
155 Harley Whited 7 McNiel (TX) 8 17:54.4 77.9 52
156 Shelby Beltran 8 City View (TX) 1 18:00.7 77.5 53
157 Lexi Souther 7 Holliday (TX) 20 18:03.4 77.3 54
158 Lorber Lisa 11 Crowell (TX) 4 18:04.0 86.0 104
159 Rachel Brandon-Hopper 8 Vernon (TX) 10 18:06.5 77.1 55
160 Luzette Rabago 7 Barwise (TX) 2 18:07.6 77.0 56
161 Julissa Diaz 10 Nocona (TX) 13 18:07.6 85.8 105
162 Abby Harrison 7 Olney (TX) 9 18:08.6 76.9 57
163 Isabella Encio 7 Nocona (TX) 14 18:10.8 76.8 58
164 Madeline Koetter 9 Henrietta (TX) 12 18:11.2 85.5 106
165 Emily Pennartz 9 Petrolia (TX) 3 18:15.1 85.2 107
166 Teressa Lemmons 10 Nocona (TX) 15 18:20.4 84.8 108
167 Erin Wolf 9 Wichita Falls Rider (TX) 7 18:22.1 84.6 112 109
168 Jessica Nelson 7 City View (TX) 2 18:23.2 75.9 59
169 Isabela Garcia 7 Henrietta (TX) 13 18:23.2 75.9 60
170 Hannah McWilliams 11 Bellevue (WA) 7 18:23.7 84.5 113 110
171 Jae Montgomery 7 Olney (TX) 10 18:25.7 75.7 61
172 Theresia Boyd 7 Holliday (TX) 21 18:27.8 75.6 62
173 Gracee Gallardo 8 City View (TX) 3 18:31.4 75.3 63
174 Haley Couffer 7 Bellevue (WA) 8 18:33.4 75.2 64
175 Tessa Berend 9 Petrolia (TX) 4 18:34.1 83.7 111
176 Marissa Rodriguez 8 Henrietta (TX) 14 18:34.7 75.1 65
177 Ramos Lucia 11 Wichita Falls Rider (TX) 8 18:41.7 83.2 112
178 Kirsten Burkett 7 Vernon (TX) 11 18:45.7 74.4 66
179 Emily Otega 7 Vernon (TX) 12 18:46.0 74.4 67
180 Amanda Magana 7 Zundelowitz (TX) 6 18:46.7 74.3 114 68
181 Kalico Burkes 7 Henrietta (TX) 15 18:46.9 74.3 69
182 Amanda King 8 Zundelowitz (TX) 7 18:47.4 74.3 115 70
183 Breece Schaeffer 7 Burkburnett (TX) 11 18:51.7 74.0 71
184 Everlyn Hernandez 8 Nocona (TX) 16 18:55.8 73.7 72
185 Emily Trail 9 Bellevue (WA) 9 18:56.1 82.1 113
186 Kaylee Glenn 12 Wichita Falls City View (TX) 5 18:56.8 82.0 116 114
187 Shelby Davis 8 McNiel (TX) 9 18:57.1 79.9 73
188 Luz Melchior 7 Olney (TX) 11 19:00.2 73.4 74
189 Raelyn Lemmons 8 Nocona (TX) 17 19:16.0 72.4 75
190 Samantha Bersche 10 Vernon (TX) 13 19:27.4 79.9 115
191 Abbi Ortiz 7 Burkburnett (TX) 12 19:28.0 71.7 76
192 Rebecca Riggins 11 Henrietta (TX) 16 19:28.7 79.8 116
193 Zoila Acuna 8 Zundelowitz (TX) 8 19:36.6 71.2 77
194 Hannah Hawkins 7 Burkburnett (TX) 13 19:43.2 70.8 78
195 Taylor Makibbin 7 Barwise (TX) 3 19:44.1 70.7 79
196 Morgan Wood 8 Burkburnett (TX) 14 19:44.7 70.7 80
197 Nicole Bell 9 Henrietta (TX) 17 19:54.1 78.1 117
198 Jasey Jentsch 8 McNiel (TX) 10 19:55.6 70.0 81
199 Kelsey Kizer 7 McNiel (TX) 11 20:05.0 69.5 82
200 Nadia Khan 11 Chillicothe (OH) 1 20:08.8 77.2 118
201 Adeline McDonnell 11 Henrietta (TX) 18 20:11.4 77.0 119
202 Sara Mayes 11 Henrietta (TX) 19 20:12.8 76.9 120
203 Michaela Hedrick 11 Henrietta (TX) 20 20:18.2 76.6 121
204 Aurora Spence 8 McNiel (TX) 12 20:35.9 67.7 83
205 Maurissa Pilcher 8 Vernon (TX) 14 20:45.9 67.2 84
206 Tori Teague 12 Christ Academy (TX) 1 21:02.2 73.9 122
207 Nazhula Straight 8 Zundelowitz (TX) 9 21:15.7 65.6 85
208 Kyla Williams 7 Burkburnett (TX) 15 21:17.9 65.5 86
209 Gretchen Bluhm 9 Henrietta (TX) 21 21:25.9 72.5 123
210 Trinity Franklin 7 Nocona (TX) 18 21:26.0 65.1 87
211 Martha Ryan 7 Nocona (TX) 19 21:27.3 65.0 88
212 Kaitlyn Salazar 7 Burkburnett (TX) 16 21:32.9 64.8 89
213 Sonia Shaka 7 Zundelowitz (TX) 10 21:34.2 64.7 90
214 Megan Brown 8 Bellevue (WA) 10 21:36.7 64.6 91
215 Natalei Carrolpalmer 8 McNiel (TX) 13 21:49.5 63.9 92
216 Marrisa Garza 1 Barwise (TX) 4 21:54.9 69.1 93
217 Hannah Strayhorn 8 McNiel (TX) 14 21:57.2 63.6 94
218 Sophia Shaka 7 Zundelowitz (TX) 11 22:00.4 63.4 95
219 Jennie Phillips 7 McNiel (TX) 15 22:00.8 63.4 96
220 Candelaria Villegas 7 Zundelowitz (TX) 12 22:03.7 63.2 97
221 Anyssa Ontiveros 7 Zundelowitz (TX) 13 22:21.3 62.4 98
222 Alexis Edmonson 7 Burkburnett (TX) 17 22:31.8 61.9 99